Route Details

Aircraft Information
Group: Trans-Pacific Ops
Types: B744, MD11
Route Data
Distance: 3479nm
Duration: 7h 40m
Origin METAR: PANC 160053Z 16007KT 10SM FEW025 SCT070 BKN090 15/11 A2982 RMK AO2 SLP099 VIRGA W T01500111
Dest. METAR: KMIA 160053Z 00000KT 10SM FEW025 BKN250 27/24 A2993 RMK AO2 SLP136 T02720244
Freight Data
(for Aug 16, 2022)
Load Factor:
42%
Manifested Cargo: 98,322lbs
Financial History
Total Freight: 1,422,608lbs
Average Load: 0lbs/flt
Fuel Used: 1,411,488lbs
Avg. Fuel Used: 0lbs/flt
Fuel Expense: $1,340,389
Avg. Fuel Expense: $0
Avg. Fuel Cost: $0/lbs
Total Gross Income: $3,410,737
Pilot Pay: $2,080
Total Expenses: $504,389
Total Revenue: $1,544,108
Average Revenue: $0

Capitol Logistics 801




PANC
Ted Stevens Anchorage International Airport
Anchorage, Alaska
KMIA
Miami International Airport
Miami, Florida

Activity Log

Date Flight Route Aircraft Duration
07/22/2022 CPX801 DCT YESKA DCT COHIL DCT GOROV DCT 58N126W DCT LEPET DCT NUBEG Q971 WAINN DCT IMOTA DCT GORAK DCT MOT DCT SMERF DCT YUPER DCT CARET DCT AGNUS DCT SIDAE DCT BNA DCT ATL DCT CMIKE DCT PAINN DCT OMN ANNEY4 B744 7h 13m
07/20/2022 CPX801 DCT YESKA DCT COHIL DCT GOROV DCT 58N126W DCT LEPET DCT NUBEG Q971 WAINN DCT IMOTA DCT GORAK DCT MOT DCT SMERF DCT YUPER DCT CARET DCT AGNUS DCT SIDAE DCT BNA DCT ATL DCT CMIKE DCT PAINN DCT OMN ANNEY4 MD11 7h 34m
07/11/2022 CPX901 DCT YESKA DCT COHIL DCT GOROV DCT 58N126W DCT LEPET DCT NUBEG Q971 WAINN DCT IMOTA DCT GORAK DCT MOT DCT SMERF DCT YUPER DCT CARET DCT AGNUS DCT SIDAE DCT BNA DCT ATL DCT CMIKE DCT PAINN DCT OMN ANNEY4 B744 7h 32m
10/18/2021 CPX2453 YESKA COHIL GOROV/N0494F350 58N126W LEPET NUBEG YWV VLN MOT SMERF/N0490F370 YUPER CARET AGNUS AE BNA ATL CMIKE PAINN OMN ANNEY4 B744 7h 20m
12/31/2019 CPX107 JOH J501 YAK NCA10 YQU J515 YEG SEFFY VLN J483 MOT ABR J45 FSD J45 DSM Q19 LAJUG Q19 BNA BULZI NICKI Q81 ENDEW JUULI SSCOT5 B744 8h 32m
12/17/2019 CPX107 JOH J501 YAK NCA10 YQU J515 YEG SEFFY VLN J483 MOT ABR J45 FSD J45 DSM Q19 LAJUG Q19 BNA BULZI NICKI Q81 ENDEW JUULI SSCOT5 B77L 7h 44m
12/08/2019 CPX107 JOH J501 YAK NCA10 YQU J515 YEG SEFFY VLN J483 MOT ABR J45 FSD J45 DSM Q19 LAJUG Q19 BNA BULZI NICKI Q81 ENDEW JUULI SSCOT5 B744 8h 06m
11/17/2019 CPX107 JOH J501 YAK NCA10 YQU J515 YEG SEFFY VLN J483 MOT ABR J45 FSD J45 DSM Q19 LAJUG Q19 BNA BULZI NICKI Q81 ENDEW JUULI SSCOT5 B744 7h 26m
09/27/2019 CPX107 JOH J501 YAK NCA10 YQU J515 YEG SEFFY VLN J483 MOT ABR J45 FSD J45 DSM Q19 LAJUG Q19 BNA BULZI NICKI Q81 ENDEW JUULI SSCOT5 B744 9h 07m
03/26/2019 CPX107 JOH J501 YAK NCA10 YQU J515 YEG SEFFY VLN J483 MOT ABR J45 FSD J45 DSM Q19 LAJUG Q19 BNA BULZI NICKI Q81 ENDEW JUULI SSCOT5 B744 7h 40m